createdAt,value
2023-04-01T00:01:24.655Z,8.60
2023-04-01T00:03:51.712Z,8.60
2023-04-01T00:06:19.075Z,8.60
2023-04-01T00:08:46.017Z,8.60
2023-04-01T00:11:13.010Z,8.60
2023-04-01T00:13:39.782Z,8.60
2023-04-01T00:16:17.656Z,8.60
2023-04-01T00:18:48.380Z,8.60
2023-04-01T00:21:15.519Z,8.60
2023-04-01T00:23:42.617Z,8.60
2023-04-01T00:26:09.306Z,8.60
2023-04-01T00:28:37.469Z,8.60
2023-04-01T00:31:08.226Z,8.60
2023-04-01T00:33:35.400Z,8.60
2023-04-01T00:36:16.724Z,8.60
2023-04-01T00:38:44.123Z,8.60
2023-04-01T00:41:16.448Z,8.60
2023-04-01T00:43:44.058Z,8.60
2023-04-01T00:46:11.263Z,8.60
2023-04-01T00:48:40.741Z,8.70
2023-04-01T00:51:14.254Z,8.70
2023-04-01T00:53:42.756Z,8.70
2023-04-01T00:56:15.403Z,8.70
2023-04-01T00:58:44.446Z,8.70
2023-04-01T01:01:11.487Z,8.70
2023-04-01T01:03:38.526Z,8.70
2023-04-01T01:06:11.503Z,8.70
2023-04-01T01:08:38.995Z,8.60
2023-04-01T01:11:07.942Z,8.60
2023-04-01T01:13:57.984Z,8.60
2023-04-01T01:16:31.799Z,8.60
2023-04-01T01:19:01.454Z,8.60
2023-04-01T01:21:28.147Z,8.60
2023-04-01T01:23:57.891Z,8.60
2023-04-01T01:26:43.587Z,8.60
2023-04-01T01:29:30.279Z,8.70
2023-04-01T01:32:09.099Z,8.60
2023-04-01T01:34:41.146Z,8.70
2023-04-01T01:37:11.379Z,8.70
2023-04-01T01:39:38.512Z,8.70
2023-04-01T01:42:07.158Z,8.70
2023-04-01T01:44:34.440Z,8.70
2023-04-01T01:47:01.530Z,8.70
2023-04-01T01:49:31.252Z,8.70
2023-04-01T01:51:58.434Z,8.70
2023-04-01T01:54:25.524Z,8.70
2023-04-01T01:56:56.904Z,8.70
2023-04-01T01:59:25.776Z,8.70
2023-04-01T02:01:54.446Z,8.70
2023-04-01T02:04:22.382Z,8.70
2023-04-01T02:06:56.759Z,8.70
2023-04-01T02:09:23.625Z,8.80
2023-04-01T02:11:51.996Z,8.70
2023-04-01T02:14:30.605Z,8.80
2023-04-01T02:16:58.860Z,8.70
2023-04-01T02:19:28.800Z,8.70
2023-04-01T02:21:58.251Z,8.80
2023-04-01T02:24:27.227Z,8.80
2023-04-01T02:26:54.035Z,8.80
2023-04-01T02:29:22.634Z,8.80
2023-04-01T02:31:50.493Z,8.80
2023-04-01T02:34:17.520Z,8.80
2023-04-01T02:36:44.748Z,8.80
2023-04-01T02:39:12.428Z,8.80
2023-04-01T02:41:43.557Z,8.80
2023-04-01T02:44:14.470Z,8.80
2023-04-01T02:46:41.913Z,8.80
2023-04-01T02:49:08.948Z,8.80
2023-04-01T02:51:35.739Z,8.80
2023-04-01T02:54:02.573Z,8.80
2023-04-01T02:56:29.689Z,8.80
2023-04-01T02:58:57.397Z,8.80
2023-04-01T03:01:24.250Z,8.90
2023-04-01T03:03:51.126Z,8.80
2023-04-01T03:06:18.254Z,8.80
2023-04-01T03:08:47.842Z,8.80
2023-04-01T03:11:14.586Z,8.80
2023-04-01T03:13:41.768Z,8.70
2023-04-01T03:16:09.637Z,8.80
2023-04-01T03:18:36.367Z,8.80
2023-04-01T03:21:15.530Z,8.80
2023-04-01T03:23:42.365Z,8.80
2023-04-01T03:26:09.261Z,8.70
2023-04-01T03:28:36.419Z,8.70
2023-04-01T03:31:03.496Z,8.70
2023-04-01T03:33:37.271Z,8.70
2023-04-01T03:36:07.137Z,8.70
2023-04-01T03:38:34.539Z,8.70
2023-04-01T03:41:01.494Z,8.70
2023-04-01T03:43:28.850Z,8.70
2023-04-01T03:45:58.790Z,8.70
2023-04-01T03:48:26.402Z,8.80
2023-04-01T03:50:53.195Z,8.70
2023-04-01T03:53:20.727Z,8.80
2023-04-01T03:55:48.208Z,8.80
2023-04-01T03:58:16.386Z,8.80
2023-04-01T04:00:43.217Z,8.80
2023-04-01T04:03:11.097Z,8.80
2023-04-01T04:05:38.159Z,8.80
2023-04-01T04:08:05.071Z,8.80
2023-04-01T04:10:32.522Z,8.80
2023-04-01T04:12:59.312Z,8.80
2023-04-01T04:15:31.219Z,8.90
2023-04-01T04:17:58.364Z,8.90
2023-04-01T04:20:25.905Z,8.90
2023-04-01T04:22:52.826Z,8.90
2023-04-01T04:25:19.501Z,8.90
2023-04-01T04:27:46.444Z,8.90
2023-04-01T04:30:14.840Z,8.90
2023-04-01T04:32:43.015Z,8.90
2023-04-01T04:35:11.728Z,8.90
2023-04-01T04:37:38.518Z,8.90
2023-04-01T04:40:05.989Z,8.90
2023-04-01T04:42:32.681Z,8.90
2023-04-01T04:45:06.318Z,8.90
2023-04-01T04:47:33.124Z,8.90
2023-04-01T04:49:59.932Z,8.90
2023-04-01T04:52:26.636Z,8.90
2023-04-01T04:54:53.372Z,8.90
2023-04-01T04:57:20.292Z,8.90
2023-04-01T04:59:53.924Z,8.90
2023-04-01T05:02:35.924Z,8.90
2023-04-01T05:05:02.946Z,9.00
2023-04-01T05:07:29.607Z,9.00
2023-04-01T05:09:56.555Z,9.00
2023-04-01T05:12:23.293Z,9.10
2023-04-01T05:14:58.986Z,9.10
2023-04-01T05:17:26.245Z,9.10
2023-04-01T05:19:52.945Z,9.10
2023-04-01T05:22:20.080Z,9.20
2023-04-01T05:24:46.984Z,9.30
2023-04-01T05:27:13.796Z,9.30
2023-04-01T05:29:42.103Z,9.40
2023-04-01T05:32:15.889Z,9.30
2023-04-01T05:34:42.753Z,9.30
2023-04-01T05:37:09.541Z,9.30
2023-04-01T05:39:39.670Z,9.40
2023-04-01T05:42:08.584Z,9.50
2023-04-01T05:44:36.290Z,9.40
2023-04-01T05:47:03.774Z,9.50
2023-04-01T05:49:30.845Z,9.50
2023-04-01T05:51:57.655Z,9.40
2023-04-01T05:54:24.376Z,9.50
2023-04-01T05:56:51.155Z,9.60
2023-04-01T05:59:20.168Z,9.60
2023-04-01T06:01:46.933Z,9.60
2023-04-01T06:04:18.397Z,9.80
2023-04-01T06:06:46.403Z,9.80
2023-04-01T06:09:18.177Z,9.80
2023-04-01T06:11:54.827Z,9.80
2023-04-01T06:14:25.856Z,9.90
2023-04-01T06:17:16.341Z,9.90
2023-04-01T06:19:43.098Z,9.90
2023-04-01T06:22:16.021Z,9.90
2023-04-01T06:24:59.096Z,9.90
2023-04-01T06:27:38.411Z,9.90
2023-04-01T06:30:07.047Z,9.90
2023-04-01T06:32:34.155Z,10.00
2023-04-01T06:35:10.048Z,10.00
2023-04-01T06:37:56.994Z,10.00
2023-04-01T06:40:23.892Z,10.00
2023-04-01T06:43:12.109Z,10.00
2023-04-01T06:46:16.221Z,10.10
2023-04-01T06:49:16.756Z,10.10
2023-04-01T06:52:20.931Z,10.00
2023-04-01T06:55:06.217Z,10.10
2023-04-01T06:58:14.594Z,10.10
2023-04-01T07:00:43.717Z,10.00
2023-04-01T07:03:18.139Z,10.00
2023-04-01T07:05:45.480Z,10.10
2023-04-01T07:08:23.586Z,10.10
2023-04-01T07:10:56.220Z,10.10
2023-04-01T07:13:53.414Z,10.20
2023-04-01T07:16:57.208Z,10.20
2023-04-01T07:19:26.644Z,10.40
2023-04-01T07:22:04.131Z,10.40
2023-04-01T07:24:49.382Z,10.30
2023-04-01T07:27:16.240Z,10.50
2023-04-01T07:29:44.675Z,10.50
2023-04-01T07:32:28.517Z,10.60
2023-04-01T07:35:02.892Z,10.60
2023-04-01T07:37:50.027Z,10.60
2023-04-01T07:40:33.150Z,10.70
2023-04-01T07:43:17.294Z,10.70
2023-04-01T07:46:04.047Z,10.90
2023-04-01T07:48:44.555Z,10.80
2023-04-01T07:51:18.196Z,10.80
2023-04-01T07:53:52.970Z,10.90
2023-04-01T07:56:25.993Z,11.00
2023-04-01T07:59:28.021Z,11.00
2023-04-01T08:02:14.872Z,11.10
2023-04-01T08:04:43.474Z,11.10
2023-04-01T08:07:33.911Z,10.90
2023-04-01T08:10:26.938Z,11.00
2023-04-01T08:13:12.164Z,10.90
2023-04-01T08:16:06.905Z,10.90
2023-04-01T08:18:46.338Z,11.00
2023-04-01T08:21:17.936Z,11.00
2023-04-01T08:23:46.630Z,11.00
2023-04-01T08:26:33.536Z,11.10
2023-04-01T08:29:09.236Z,11.20
2023-04-01T08:34:31.382Z,11.30
2023-04-01T08:37:53.929Z,11.20
2023-04-01T08:40:39.309Z,11.30
2023-04-01T08:43:07.727Z,11.30
2023-04-01T08:45:54.192Z,11.40
2023-04-01T08:48:37.397Z,11.30
2023-04-01T08:51:28.716Z,11.50
2023-04-01T08:54:10.339Z,11.50
2023-04-01T08:56:41.132Z,11.50
2023-04-01T08:59:25.382Z,11.60
2023-04-01T09:02:11.975Z,11.60
2023-04-01T09:05:12.244Z,11.70
2023-04-01T09:07:45.622Z,11.50
2023-04-01T09:10:41.985Z,11.50
2023-04-01T09:13:38.825Z,11.50
2023-04-01T09:16:21.127Z,11.80
2023-04-01T09:18:56.337Z,11.90
2023-04-01T09:21:23.049Z,11.70
2023-04-01T09:24:08.693Z,11.80
2023-04-01T09:26:35.357Z,11.60
2023-04-01T09:29:23.055Z,11.80
2023-04-01T09:31:50.052Z,11.80
2023-04-01T09:34:56.434Z,11.90
2023-04-01T09:37:49.518Z,12.00
2023-04-01T09:40:24.788Z,12.00
2023-04-01T09:43:09.808Z,12.00
2023-04-01T09:45:38.700Z,12.10
2023-04-01T09:48:28.684Z,12.10
2023-04-01T09:51:14.210Z,12.00
2023-04-01T09:53:53.041Z,11.90
2023-04-01T09:56:28.267Z,11.90
2023-04-01T09:59:01.508Z,12.00
2023-04-01T10:02:06.180Z,12.10
2023-04-01T10:04:51.427Z,12.00
2023-04-01T10:07:21.210Z,12.00
2023-04-01T10:09:57.270Z,12.00
2023-04-01T10:12:42.560Z,12.00
2023-04-01T10:15:21.310Z,12.00
2023-04-01T10:17:51.166Z,12.00
2023-04-01T10:20:20.994Z,11.80
2023-04-01T10:22:59.786Z,11.80
2023-04-01T10:25:46.244Z,11.80
2023-04-01T10:28:20.778Z,11.90
2023-04-01T10:31:48.581Z,12.10
2023-04-01T10:34:19.997Z,12.10
2023-04-01T10:37:13.082Z,12.20
2023-04-01T10:40:06.991Z,12.10
2023-04-01T10:43:24.737Z,12.10
2023-04-01T10:46:27.294Z,12.00
2023-04-01T10:49:03.699Z,11.80
2023-04-01T10:51:31.432Z,11.60
2023-04-01T10:54:10.939Z,11.30
2023-04-01T10:57:02.171Z,11.00
2023-04-01T11:00:06.961Z,11.00
2023-04-01T11:03:07.481Z,11.00
2023-04-01T11:06:03.348Z,11.00
2023-04-01T11:08:48.848Z,11.20
2023-04-01T11:11:35.675Z,11.10
2023-04-01T11:14:16.528Z,11.20
2023-04-01T11:16:53.936Z,11.40
2023-04-01T11:19:20.856Z,11.50
2023-04-01T11:22:06.944Z,11.60
2023-04-01T11:24:52.386Z,11.60
2023-04-01T11:27:52.252Z,11.50
2023-04-01T11:30:55.645Z,11.40
2023-04-01T11:33:39.545Z,11.40
2023-04-01T11:36:12.453Z,11.40
2023-04-01T11:38:40.576Z,11.40
2023-04-01T11:41:44.540Z,11.40
2023-04-01T11:44:30.631Z,11.50
2023-04-01T11:47:48.304Z,11.60
2023-04-01T11:50:15.372Z,11.50
2023-04-01T11:53:04.574Z,11.50
2023-04-01T11:55:50.658Z,11.20
2023-04-01T11:58:18.304Z,11.10
2023-04-01T12:00:51.183Z,11.00
2023-04-01T12:03:40.008Z,10.90
2023-04-01T12:06:15.092Z,11.00
2023-04-01T12:08:42.367Z,10.90
2023-04-01T12:11:09.087Z,10.90
2023-04-01T12:13:35.746Z,10.80
2023-04-01T12:16:14.554Z,10.70
2023-04-01T12:18:43.847Z,10.70
2023-04-01T12:21:13.858Z,10.70
2023-04-01T12:23:55.629Z,10.50
2023-04-01T12:26:28.335Z,10.40
2023-04-01T12:29:04.368Z,10.20
2023-04-01T12:31:50.216Z,10.20
2023-04-01T12:34:32.412Z,10.00
2023-04-01T12:37:05.326Z,9.90
2023-04-01T12:39:43.859Z,9.80
2023-04-01T12:42:28.936Z,9.80
2023-04-01T12:45:14.307Z,9.70
2023-04-01T12:47:53.307Z,9.60
2023-04-01T12:50:26.051Z,9.60
2023-04-01T12:53:04.084Z,9.70
2023-04-01T12:55:31.242Z,9.50
2023-04-01T12:58:11.769Z,9.40
2023-04-01T13:00:57.439Z,9.30
2023-04-01T13:03:39.546Z,9.30
2023-04-01T13:06:20.907Z,9.10
2023-04-01T13:09:03.326Z,9.10
2023-04-01T13:11:36.146Z,9.10
2023-04-01T13:14:15.897Z,9.10
2023-04-01T13:16:51.957Z,9.10
2023-04-01T13:19:22.098Z,9.10
2023-04-01T13:21:58.529Z,9.10
2023-04-01T13:24:32.046Z,9.10
2023-04-01T13:27:17.932Z,9.00
2023-04-01T13:29:56.747Z,9.00
2023-04-01T13:32:36.930Z,9.10
2023-04-01T13:35:16.608Z,9.10
2023-04-01T13:37:55.548Z,9.10
2023-04-01T13:40:28.036Z,9.20
2023-04-01T13:43:06.697Z,9.00
2023-04-01T13:45:51.901Z,9.10
2023-04-01T13:48:48.309Z,8.90
2023-04-01T13:51:29.305Z,8.90
2023-04-01T13:54:11.088Z,8.90
2023-04-01T13:57:10.478Z,8.90
2023-04-01T13:59:55.888Z,8.70
2023-04-01T14:02:47.914Z,8.80
2023-04-01T14:05:41.899Z,8.70
2023-04-01T14:08:15.812Z,8.80
2023-04-01T14:11:01.467Z,8.70
2023-04-01T14:13:37.464Z,8.70
2023-04-01T14:16:07.356Z,8.70
2023-04-01T14:18:48.231Z,8.70
2023-04-01T14:21:20.788Z,8.70
2023-04-01T14:23:53.000Z,8.60
2023-04-01T14:26:22.564Z,8.60
2023-04-01T14:29:08.191Z,8.50
2023-04-01T14:31:57.995Z,8.50
2023-04-01T14:34:31.173Z,8.50
2023-04-01T14:37:00.971Z,8.30
2023-04-01T14:39:46.268Z,8.30
2023-04-01T14:42:22.158Z,8.30
2023-04-01T14:44:52.497Z,8.30
2023-04-01T14:47:37.776Z,8.20
2023-04-01T14:50:07.821Z,8.20
2023-04-01T14:52:37.076Z,8.20
2023-04-01T14:55:18.565Z,8.30
2023-04-01T14:57:58.611Z,8.20
2023-04-01T15:00:25.860Z,8.10
2023-04-01T15:03:11.593Z,8.00
2023-04-01T15:06:13.739Z,8.00
2023-04-01T15:08:59.240Z,7.90
2023-04-01T15:11:42.388Z,7.90
2023-04-01T15:14:22.164Z,7.90
2023-04-01T15:16:51.951Z,7.90
2023-04-01T15:19:24.704Z,8.00
2023-04-01T15:21:57.150Z,7.90
2023-04-01T15:24:29.314Z,7.80
2023-04-01T15:27:20.206Z,7.80
2023-04-01T15:30:09.669Z,7.80
2023-04-01T15:32:39.724Z,7.80
2023-04-01T15:35:15.882Z,7.80
2023-04-01T15:37:57.715Z,7.80
2023-04-01T15:40:42.979Z,7.80
2023-04-01T15:43:23.254Z,7.60
2023-04-01T15:45:52.878Z,7.70
2023-04-01T15:48:34.628Z,7.60
2023-04-01T15:51:01.452Z,7.50
2023-04-01T15:53:38.226Z,7.60
2023-04-01T15:56:17.157Z,7.50
2023-04-01T15:58:43.917Z,7.50
2023-04-01T16:01:26.060Z,7.40
2023-04-01T16:04:06.901Z,7.40
2023-04-01T16:06:52.546Z,7.30
2023-04-01T16:09:32.582Z,7.50
2023-04-01T16:12:02.161Z,7.40
2023-04-01T16:14:32.005Z,7.40
2023-04-01T16:17:01.769Z,7.30
2023-04-01T16:19:52.044Z,7.20
2023-04-01T16:22:33.520Z,7.10
2023-04-01T16:25:33.002Z,7.20
2023-04-01T16:27:59.729Z,7.10
2023-04-01T16:30:26.489Z,7.10
2023-04-01T16:33:09.676Z,7.10
2023-04-01T16:35:42.557Z,7.10
2023-04-01T16:38:16.648Z,7.00
2023-04-01T16:41:02.448Z,6.90
2023-04-01T16:43:39.795Z,6.90
2023-04-01T16:46:09.612Z,6.80
2023-04-01T16:48:56.636Z,6.90
2023-04-01T16:51:23.436Z,6.80
2023-04-01T16:54:09.020Z,6.80
2023-04-01T16:56:44.974Z,6.80
2023-04-01T16:59:11.730Z,6.90
2023-04-01T17:01:44.260Z,6.90
2023-04-01T17:04:23.351Z,6.90
2023-04-01T17:06:54.724Z,6.90
2023-04-01T17:09:31.874Z,6.70
2023-04-01T17:12:05.002Z,6.70
2023-04-01T17:14:43.640Z,6.60
2023-04-01T17:17:49.090Z,6.60
2023-04-01T17:20:17.385Z,6.60
2023-04-01T17:22:46.783Z,6.50
2023-04-01T17:25:22.734Z,6.40
2023-04-01T17:27:53.040Z,6.40
2023-04-01T17:30:32.232Z,6.40
2023-04-01T17:33:11.560Z,6.40
2023-04-01T17:35:38.386Z,6.30
2023-04-01T17:38:08.110Z,6.30
2023-04-01T17:40:35.084Z,6.40
2023-04-01T17:43:14.134Z,6.40
2023-04-01T17:45:54.241Z,6.30
2023-04-01T17:48:39.636Z,6.30
2023-04-01T17:51:12.498Z,6.20
2023-04-01T17:53:45.681Z,6.10
2023-04-01T17:56:31.854Z,6.10
2023-04-01T17:59:04.740Z,6.10
2023-04-01T18:01:37.122Z,6.00
2023-04-01T18:04:08.378Z,6.00
2023-04-01T18:06:37.267Z,6.00
2023-04-01T18:09:19.565Z,6.00
2023-04-01T18:12:01.721Z,6.00
2023-04-01T18:14:47.984Z,5.90
2023-04-01T18:17:21.447Z,5.80
2023-04-01T18:20:06.608Z,5.70
2023-04-01T18:22:45.544Z,5.80
2023-04-01T18:25:21.428Z,5.70
2023-04-01T18:28:08.399Z,5.70
2023-04-01T18:30:36.015Z,5.70
2023-04-01T18:33:06.451Z,5.60
2023-04-01T18:35:42.492Z,5.50
2023-04-01T18:38:30.284Z,5.60
2023-04-01T18:41:16.702Z,5.50
2023-04-01T18:44:03.958Z,5.40
2023-04-01T18:46:46.120Z,5.40
2023-04-01T18:49:21.814Z,5.30
2023-04-01T18:51:48.544Z,5.40
2023-04-01T18:54:25.975Z,5.30
2023-04-01T18:57:01.136Z,5.30
2023-04-01T18:59:37.390Z,5.30
2023-04-01T19:02:16.276Z,5.30
2023-04-01T19:04:42.950Z,5.30
2023-04-01T19:07:28.491Z,5.30
2023-04-01T19:10:01.078Z,5.20
2023-04-01T19:12:38.247Z,5.20
2023-04-01T19:15:07.813Z,5.20
2023-04-01T19:17:46.268Z,5.20
2023-04-01T19:20:18.608Z,5.30
2023-04-01T19:22:53.113Z,5.30
2023-04-01T19:25:34.219Z,5.30
2023-04-01T19:28:24.259Z,5.30
2023-04-01T19:30:50.997Z,5.20
2023-04-01T19:33:23.863Z,5.20
2023-04-01T19:36:00.642Z,5.20
2023-04-01T19:38:40.768Z,5.20
2023-04-01T19:41:10.580Z,5.10
2023-04-01T19:44:05.003Z,5.20
2023-04-01T19:46:36.303Z,5.10
2023-04-01T19:49:09.517Z,5.10
2023-04-01T19:51:42.440Z,5.20
2023-04-01T19:54:11.946Z,5.20
2023-04-01T19:56:47.608Z,5.20
2023-04-01T19:59:21.208Z,5.10
2023-04-01T20:01:51.219Z,5.10
2023-04-01T20:04:21.325Z,5.00
2023-04-01T20:06:48.075Z,5.00
2023-04-01T20:09:17.689Z,5.00
2023-04-01T20:11:56.143Z,5.00
2023-04-01T20:14:42.140Z,5.00
2023-04-01T20:17:31.635Z,5.00
2023-04-01T20:20:07.693Z,5.00
2023-04-01T20:22:46.402Z,5.00
2023-04-01T20:25:13.874Z,4.90
2023-04-01T20:27:45.202Z,4.80
2023-04-01T20:30:35.112Z,4.80
2023-04-01T20:33:07.560Z,4.70
2023-04-01T20:35:51.087Z,4.70
2023-04-01T20:38:40.912Z,4.70
2023-04-01T20:41:13.103Z,4.70
2023-04-01T20:43:59.033Z,4.70
2023-04-01T20:46:35.134Z,4.70
2023-04-01T20:49:32.160Z,4.70
2023-04-01T20:52:27.977Z,4.70
2023-04-01T20:54:54.679Z,4.70
2023-04-01T20:57:27.978Z,4.70
2023-04-01T21:00:17.399Z,4.70
2023-04-01T21:03:02.584Z,4.60
2023-04-01T21:05:48.158Z,4.50
2023-04-01T21:08:30.397Z,4.60
2023-04-01T21:11:02.229Z,4.60
2023-04-01T21:13:38.034Z,4.50
2023-04-01T21:16:07.874Z,4.50
2023-04-01T21:18:37.374Z,4.50
2023-04-01T21:21:22.647Z,4.60
2023-04-01T21:23:55.633Z,4.60
2023-04-01T21:26:22.598Z,4.60
2023-04-01T21:28:55.507Z,4.50
2023-04-01T21:31:26.745Z,4.40
2023-04-01T21:33:59.816Z,4.40
2023-04-01T21:36:33.343Z,4.40
2023-04-01T21:39:00.097Z,4.40
2023-04-01T21:41:32.876Z,4.30
2023-04-01T21:44:12.061Z,4.30
2023-04-01T21:46:41.906Z,4.20
2023-04-01T21:49:17.970Z,4.20
2023-04-01T21:51:47.514Z,4.20
2023-04-01T21:54:33.011Z,4.20
2023-04-01T21:57:18.679Z,4.10
2023-04-01T22:00:12.192Z,4.10
2023-04-01T22:02:57.728Z,4.10
2023-04-01T22:05:37.083Z,4.00
2023-04-01T22:08:19.875Z,4.10
2023-04-01T22:11:05.271Z,4.00
2023-04-01T22:13:34.944Z,3.90
2023-04-01T22:16:30.929Z,3.90
2023-04-01T22:19:02.838Z,3.90
2023-04-01T22:21:42.026Z,3.90
2023-04-01T22:24:14.692Z,3.90
2023-04-01T22:26:48.180Z,3.90
2023-04-01T22:29:26.349Z,3.90
2023-04-01T22:31:56.609Z,3.80
2023-04-01T22:34:33.499Z,3.80
2023-04-01T22:37:03.293Z,3.80
2023-04-01T22:39:37.250Z,3.70
2023-04-01T22:42:07.673Z,3.80
2023-04-01T22:44:34.412Z,3.70
2023-04-01T22:47:19.949Z,3.70
2023-04-01T22:49:56.262Z,3.60
2023-04-01T22:52:28.790Z,3.70
2023-04-01T22:54:57.700Z,3.70
2023-04-01T22:57:39.436Z,3.60
2023-04-01T23:00:09.596Z,3.50
2023-04-01T23:02:41.085Z,3.70
2023-04-01T23:05:11.844Z,3.60
2023-04-01T23:07:47.268Z,3.70
2023-04-01T23:10:18.631Z,3.70
2023-04-01T23:12:46.145Z,3.60
2023-04-01T23:15:14.441Z,3.60
2023-04-01T23:18:02.280Z,3.60
2023-04-01T23:20:29.243Z,3.70
2023-04-01T23:23:14.620Z,3.80
2023-04-01T23:25:52.286Z,3.80
2023-04-01T23:28:23.203Z,3.80
2023-04-01T23:30:51.107Z,3.80
2023-04-01T23:33:20.902Z,3.80
2023-04-01T23:36:05.927Z,3.80
2023-04-01T23:38:36.947Z,3.80
2023-04-01T23:41:04.245Z,3.80
2023-04-01T23:43:32.265Z,3.80
2023-04-01T23:46:00.952Z,3.80
2023-04-01T23:48:36.040Z,3.80
2023-04-01T23:51:02.779Z,3.80
2023-04-01T23:53:31.766Z,3.80
2023-04-01T23:55:58.460Z,3.80
2023-04-01T23:58:29.630Z,3.80
